sensor_id;sensor_type;location;lat;lon;timestamp;temperature;humidity
6552;DHT22;3309;48.708;9.290;2022-11-15T06:29:24;9.80;1.00
6552;DHT22;3309;48.708;9.290;2022-11-15T08:02:22;4.20;99.90
6552;DHT22;3309;48.708;9.290;2022-11-15T08:04:47;21.20;1.00
6552;DHT22;3309;48.708;9.290;2022-11-15T08:07:13;21.80;1.00
6552;DHT22;3309;48.708;9.290;2022-11-15T08:09:38;22.60;1.00
6552;DHT22;3309;48.708;9.290;2022-11-15T08:12:04;23.30;1.00
6552;DHT22;3309;48.708;9.290;2022-11-15T08:16:56;23.20;1.00
6552;DHT22;3309;48.708;9.290;2022-11-15T08:43:56;20.70;1.00
6552;DHT22;3309;48.708;9.290;2022-11-15T08:46:21;17.20;1.00
6552;DHT22;3309;48.708;9.290;2022-11-15T08:48:47;17.50;1.00
6552;DHT22;3309;48.708;9.290;2022-11-15T09:05:59;17.90;1.00
6552;DHT22;3309;48.708;9.290;2022-11-15T09:27:55;22.00;1.00
6552;DHT22;3309;48.708;9.290;2022-11-15T09:30:21;18.50;1.00
6552;DHT22;3309;48.708;9.290;2022-11-15T09:32:47;17.90;1.00
6552;DHT22;3309;48.708;9.290;2022-11-15T09:35:12;17.50;1.00
6552;DHT22;3309;48.708;9.290;2022-11-15T09:40:04;17.40;1.00
6552;DHT22;3309;48.708;9.290;2022-11-15T10:09:01;19.20;1.00
6552;DHT22;3309;48.708;9.290;2022-11-15T10:11:35;21.30;1.00
6552;DHT22;3309;48.708;9.290;2022-11-15T10:29:21;20.30;1.00
6552;DHT22;3309;48.708;9.290;2022-11-15T10:36:57;19.40;1.00
6552;DHT22;3309;48.708;9.290;2022-11-15T10:39:24;18.30;1.00
6552;DHT22;3309;48.708;9.290;2022-11-15T10:41:50;17.70;1.00
6552;DHT22;3309;48.708;9.290;2022-11-15T10:44:30;17.20;1.00
6552;DHT22;3309;48.708;9.290;2022-11-15T10:49:32;16.60;1.00
6552;DHT22;3309;48.708;9.290;2022-11-15T10:52:14;16.40;1.00
6552;DHT22;3309;48.708;9.290;2022-11-15T10:54:42;16.20;1.00
6552;DHT22;3309;48.708;9.290;2022-11-15T10:59:44;15.80;1.00
6552;DHT22;3309;48.708;9.290;2022-11-15T11:04:52;15.50;1.00
6552;DHT22;3309;48.708;9.290;2022-11-15T11:07:23;15.50;1.00
6552;DHT22;3309;48.708;9.290;2022-11-15T11:10:19;15.40;1.00
6552;DHT22;3309;48.708;9.290;2022-11-15T11:12:43;15.30;1.00
6552;DHT22;3309;48.708;9.290;2022-11-15T11:15:11;15.20;1.00
6552;DHT22;3309;48.708;9.290;2022-11-15T11:18:05;15.00;1.00
6552;DHT22;3309;48.708;9.290;2022-11-15T11:20:45;14.90;1.00
6552;DHT22;3309;48.708;9.290;2022-11-15T11:26:32;14.70;1.00
6552;DHT22;3309;48.708;9.290;2022-11-15T11:32:19;14.60;99.90
6552;DHT22;3309;48.708;9.290;2022-11-15T11:35:04;14.50;99.90
6552;DHT22;3309;48.708;9.290;2022-11-15T11:37:49;14.50;99.90
6552;DHT22;3309;48.708;9.290;2022-11-15T11:40:28;14.40;99.90
6552;DHT22;3309;48.708;9.290;2022-11-15T11:43:21;14.20;1.00
6552;DHT22;3309;48.708;9.290;2022-11-15T11:46:18;14.20;1.00
6552;DHT22;3309;48.708;9.290;2022-11-15T11:48:51;14.00;1.00
6552;DHT22;3309;48.708;9.290;2022-11-15T11:51:24;14.00;1.00
6552;DHT22;3309;48.708;9.290;2022-11-15T11:54:30;14.10;1.00
6552;DHT22;3309;48.708;9.290;2022-11-15T11:56:58;14.10;1.00
6552;DHT22;3309;48.708;9.290;2022-11-15T11:59:33;14.10;1.00
6552;DHT22;3309;48.708;9.290;2022-11-15T12:02:28;14.20;1.00
6552;DHT22;3309;48.708;9.290;2022-11-15T12:05:03;14.20;1.00
6552;DHT22;3309;48.708;9.290;2022-11-15T12:07:32;14.30;1.00
6552;DHT22;3309;48.708;9.290;2022-11-15T12:12:44;14.70;99.90
6552;DHT22;3309;48.708;9.290;2022-11-15T12:17:41;14.80;1.00
6552;DHT22;3309;48.708;9.290;2022-11-15T12:20:25;14.80;1.00
6552;DHT22;3309;48.708;9.290;2022-11-15T12:23:15;14.80;1.00
6552;DHT22;3309;48.708;9.290;2022-11-15T12:26:19;14.80;1.00
6552;DHT22;3309;48.708;9.290;2022-11-15T12:28:58;14.80;1.00
6552;DHT22;3309;48.708;9.290;2022-11-15T12:31:41;14.60;1.00
6552;DHT22;3309;48.708;9.290;2022-11-15T12:36:49;14.30;99.90
6552;DHT22;3309;48.708;9.290;2022-11-15T12:39:16;14.30;1.00
6552;DHT22;3309;48.708;9.290;2022-11-15T12:59:58;14.00;1.00
6552;DHT22;3309;48.708;9.290;2022-11-15T13:02:30;14.00;1.00
6552;DHT22;3309;48.708;9.290;2022-11-15T13:10:30;14.10;99.90
6552;DHT22;3309;48.708;9.290;2022-11-15T13:13:04;14.10;99.90
6552;DHT22;3309;48.708;9.290;2022-11-15T13:16:00;14.00;1.00
6552;DHT22;3309;48.708;9.290;2022-11-15T13:20:53;13.90;99.90
6552;DHT22;3309;48.708;9.290;2022-11-15T13:23:21;13.90;1.00
6552;DHT22;3309;48.708;9.290;2022-11-15T13:31:03;13.80;99.90
6552;DHT22;3309;48.708;9.290;2022-11-15T13:33:39;13.80;6.50
6552;DHT22;3309;48.708;9.290;2022-11-15T13:36:20;13.70;99.90
6552;DHT22;3309;48.708;9.290;2022-11-15T13:39:01;13.70;99.90
6552;DHT22;3309;48.708;9.290;2022-11-15T13:41:30;13.60;1.00
6552;DHT22;3309;48.708;9.290;2022-11-15T13:43:57;13.60;1.00
6552;DHT22;3309;48.708;9.290;2022-11-15T13:46:28;13.70;99.90
6552;DHT22;3309;48.708;9.290;2022-11-15T13:49:05;13.70;99.90
6552;DHT22;3309;48.708;9.290;2022-11-15T13:56:27;13.70;1.00
6552;DHT22;3309;48.708;9.290;2022-11-15T13:58:54;13.60;1.00
6552;DHT22;3309;48.708;9.290;2022-11-15T14:01:21;13.70;1.00
6552;DHT22;3309;48.708;9.290;2022-11-15T14:03:56;13.70;1.00
6552;DHT22;3309;48.708;9.290;2022-11-15T14:06:24;13.60;1.00
6552;DHT22;3309;48.708;9.290;2022-11-15T14:11:34;13.60;1.00
6552;DHT22;3309;48.708;9.290;2022-11-15T14:16:45;13.60;1.00
6552;DHT22;3309;48.708;9.290;2022-11-15T14:22:49;13.60;1.00
6552;DHT22;3309;48.708;9.290;2022-11-15T14:30:47;13.60;1.00
6552;DHT22;3309;48.708;9.290;2022-11-15T14:33:32;13.60;1.00
6552;DHT22;3309;48.708;9.290;2022-11-15T14:38:37;13.40;73.00
6552;DHT22;3309;48.708;9.290;2022-11-15T14:41:03;13.30;1.00
6552;DHT22;3309;48.708;9.290;2022-11-15T14:43:29;13.30;99.90
6552;DHT22;3309;48.708;9.290;2022-11-15T14:45:55;13.20;1.00
6552;DHT22;3309;48.708;9.290;2022-11-15T14:48:20;13.20;1.00
6552;DHT22;3309;48.708;9.290;2022-11-15T14:50:47;13.10;1.00
6552;DHT22;3309;48.708;9.290;2022-11-15T14:53:15;13.10;99.90
6552;DHT22;3309;48.708;9.290;2022-11-15T14:55:41;13.20;99.90
6552;DHT22;3309;48.708;9.290;2022-11-15T14:58:07;13.20;99.90
6552;DHT22;3309;48.708;9.290;2022-11-15T15:00:34;13.20;1.00
6552;DHT22;3309;48.708;9.290;2022-11-15T15:03:01;13.10;1.00
6552;DHT22;3309;48.708;9.290;2022-11-15T15:05:38;13.10;1.00
6552;DHT22;3309;48.708;9.290;2022-11-15T15:08:05;13.10;1.00
6552;DHT22;3309;48.708;9.290;2022-11-15T15:10:49;13.00;1.00
6552;DHT22;3309;48.708;9.290;2022-11-15T15:13:16;13.00;1.00
6552;DHT22;3309;48.708;9.290;2022-11-15T15:15:42;13.00;1.00
6552;DHT22;3309;48.708;9.290;2022-11-15T15:18:08;13.00;1.00
6552;DHT22;3309;48.708;9.290;2022-11-15T15:20:35;13.00;1.00
6552;DHT22;3309;48.708;9.290;2022-11-15T15:23:02;13.00;99.90
6552;DHT22;3309;48.708;9.290;2022-11-15T15:25:30;13.00;99.90
6552;DHT22;3309;48.708;9.290;2022-11-15T15:27:57;12.90;1.00
6552;DHT22;3309;48.708;9.290;2022-11-15T15:30:24;13.00;1.00
6552;DHT22;3309;48.708;9.290;2022-11-15T15:32:50;12.90;1.00
6552;DHT22;3309;48.708;9.290;2022-11-15T15:35:16;12.80;1.00
6552;DHT22;3309;48.708;9.290;2022-11-15T15:37:43;12.80;1.00
6552;DHT22;3309;48.708;9.290;2022-11-15T15:40:22;12.70;1.00
6552;DHT22;3309;48.708;9.290;2022-11-15T15:42:49;12.60;1.00
6552;DHT22;3309;48.708;9.290;2022-11-15T15:45:15;12.60;1.00
6552;DHT22;3309;48.708;9.290;2022-11-15T15:47:41;12.60;1.00
6552;DHT22;3309;48.708;9.290;2022-11-15T15:50:28;12.50;1.00
6552;DHT22;3309;48.708;9.290;2022-11-15T15:52:57;12.60;1.00
6552;DHT22;3309;48.708;9.290;2022-11-15T15:55:24;12.50;1.00
6552;DHT22;3309;48.708;9.290;2022-11-15T15:57:49;12.40;1.00
6552;DHT22;3309;48.708;9.290;2022-11-15T16:00:16;12.40;1.00
6552;DHT22;3309;48.708;9.290;2022-11-15T16:02:42;12.40;1.00
6552;DHT22;3309;48.708;9.290;2022-11-15T16:05:09;12.30;1.00
6552;DHT22;3309;48.708;9.290;2022-11-15T16:07:35;12.20;1.00
6552;DHT22;3309;48.708;9.290;2022-11-15T16:10:02;12.20;1.00
6552;DHT22;3309;48.708;9.290;2022-11-15T16:12:34;12.30;1.00
6552;DHT22;3309;48.708;9.290;2022-11-15T16:15:00;12.20;1.00
6552;DHT22;3309;48.708;9.290;2022-11-15T16:17:31;12.20;1.00
6552;DHT22;3309;48.708;9.290;2022-11-15T16:19:59;12.20;1.00
6552;DHT22;3309;48.708;9.290;2022-11-15T21:28:53;12.20;1.00
6552;DHT22;3309;48.708;9.290;2022-11-15T21:31:18;10.90;99.70
6552;DHT22;3309;48.708;9.290;2022-11-15T21:33:44;10.80;99.90
6552;DHT22;3309;48.708;9.290;2022-11-15T21:36:09;10.80;99.90
6552;DHT22;3309;48.708;9.290;2022-11-15T21:38:35;10.80;99.90
6552;DHT22;3309;48.708;9.290;2022-11-15T21:41:02;10.80;99.90
6552;DHT22;3309;48.708;9.290;2022-11-15T21:43:28;10.80;99.90
6552;DHT22;3309;48.708;9.290;2022-11-15T21:46:01;10.80;99.90
6552;DHT22;3309;48.708;9.290;2022-11-15T21:48:29;10.90;99.90
6552;DHT22;3309;48.708;9.290;2022-11-15T21:50:59;10.80;99.90
6552;DHT22;3309;48.708;9.290;2022-11-15T21:53:27;10.80;98.90
6552;DHT22;3309;48.708;9.290;2022-11-15T21:55:53;10.80;99.90
6552;DHT22;3309;48.708;9.290;2022-11-15T21:58:19;10.80;98.10
6552;DHT22;3309;48.708;9.290;2022-11-15T22:00:45;10.80;96.40
6552;DHT22;3309;48.708;9.290;2022-11-15T22:03:29;10.80;95.40
6552;DHT22;3309;48.708;9.290;2022-11-15T22:05:55;10.70;99.90
6552;DHT22;3309;48.708;9.290;2022-11-15T22:08:21;10.70;99.90
6552;DHT22;3309;48.708;9.290;2022-11-15T22:10:48;10.70;99.90
6552;DHT22;3309;48.708;9.290;2022-11-15T22:13:14;10.70;99.90
